createdAt,value
2022-12-01T00:01:44.599Z,17.77
2022-12-01T00:04:11.007Z,17.40
2022-12-01T00:06:37.295Z,16.77
2022-12-01T00:09:22.343Z,16.30
2022-12-01T00:11:48.761Z,15.02
2022-12-01T00:14:16.303Z,20.97
2022-12-01T00:16:44.400Z,20.03
2022-12-01T00:19:10.812Z,20.03
2022-12-01T00:21:37.154Z,23.40
2022-12-01T00:24:03.511Z,17.13
2022-12-01T00:26:29.789Z,22.20
2022-12-01T00:28:57.733Z,22.60
2022-12-01T00:31:24.158Z,20.10
2022-12-01T00:33:50.586Z,20.30
2022-12-01T00:36:17.161Z,20.20
2022-12-01T00:38:43.433Z,22.60
2022-12-01T00:41:09.724Z,23.97
2022-12-01T00:43:35.982Z,20.77
2022-12-01T00:46:03.527Z,19.73
2022-12-01T00:48:29.972Z,20.50
2022-12-01T00:50:56.340Z,21.80
2022-12-01T00:53:22.968Z,18.87
2022-12-01T00:55:49.271Z,20.40
2022-12-01T00:58:15.566Z,31.87
2022-12-01T01:00:42.821Z,17.73
2022-12-01T01:03:09.618Z,16.13
2022-12-01T01:05:40.228Z,17.30
2022-12-01T01:08:07.636Z,21.03
2022-12-01T01:10:34.099Z,18.27
2022-12-01T01:13:00.367Z,21.20
2022-12-01T01:15:26.640Z,21.57
2022-12-01T01:17:52.914Z,18.40
2022-12-01T01:20:19.173Z,20.10
2022-12-01T01:22:45.444Z,19.67
2022-12-01T01:25:11.715Z,14.53
2022-12-01T01:27:38.054Z,19.33
2022-12-01T01:30:04.612Z,18.83
2022-12-01T01:32:30.973Z,19.10
2022-12-01T01:34:57.245Z,13.60
2022-12-01T01:37:23.514Z,18.77
2022-12-01T01:39:50.059Z,23.87
2022-12-01T01:42:18.522Z,18.53
2022-12-01T01:44:48.268Z,13.33
2022-12-01T01:47:15.166Z,10.60
2022-12-01T01:49:41.938Z,15.33
2022-12-01T01:52:08.550Z,14.37
2022-12-01T01:54:37.324Z,21.43
2022-12-01T01:57:04.788Z,19.93
2022-12-01T01:59:33.287Z,24.00
2022-12-01T02:02:06.017Z,19.13
2022-12-01T02:04:36.805Z,14.67
2022-12-01T02:07:03.416Z,19.70
2022-12-01T02:09:29.680Z,17.70
2022-12-01T02:12:00.698Z,18.30
2022-12-01T02:14:45.825Z,20.67
2022-12-01T02:17:30.452Z,18.73
2022-12-01T02:20:15.200Z,22.23
2022-12-01T02:22:41.481Z,26.23
2022-12-01T02:25:28.011Z,23.97
2022-12-01T02:27:54.301Z,20.90
2022-12-01T02:30:32.555Z,22.53
2022-12-01T02:33:06.696Z,18.43
2022-12-01T02:35:36.991Z,22.17
2022-12-01T02:38:21.925Z,18.90
2022-12-01T02:41:20.766Z,28.05
2022-12-01T02:44:03.262Z,19.87
2022-12-01T02:46:38.327Z,28.73
2022-12-01T02:49:08.077Z,22.90
2022-12-01T02:51:35.840Z,14.57
2022-12-01T02:54:03.009Z,19.07
2022-12-01T02:56:29.606Z,16.60
2022-12-01T02:58:55.906Z,23.27
2022-12-01T03:01:28.292Z,23.23
2022-12-01T03:04:03.709Z,25.57
2022-12-01T03:08:56.408Z,23.87
2022-12-01T03:11:29.665Z,22.33
2022-12-01T03:14:01.946Z,21.00
2022-12-01T03:16:47.010Z,21.53
2022-12-01T03:19:15.883Z,21.63
2022-12-01T03:21:44.126Z,17.87
2022-12-01T03:24:14.857Z,21.90
2022-12-01T03:26:42.070Z,15.20
2022-12-01T03:29:10.729Z,20.07
2022-12-01T03:31:40.539Z,17.20
2022-12-01T03:34:09.499Z,17.23
2022-12-01T03:36:39.804Z,19.30
2022-12-01T03:39:08.764Z,18.43
2022-12-01T03:41:43.234Z,19.73
2022-12-01T03:44:12.152Z,17.77
2022-12-01T03:46:44.425Z,16.93
2022-12-01T03:49:10.846Z,20.43
2022-12-01T03:52:12.890Z,19.27
2022-12-01T03:54:46.445Z,20.77
2022-12-01T03:57:18.344Z,17.83
2022-12-01T03:59:45.190Z,13.73
2022-12-01T04:02:12.191Z,22.33
2022-12-01T04:04:38.521Z,19.77
2022-12-01T04:07:04.864Z,17.83
2022-12-01T04:09:31.127Z,15.50
2022-12-01T04:12:16.002Z,16.97
2022-12-01T04:14:42.290Z,14.07
2022-12-01T04:17:08.545Z,18.97
2022-12-01T04:19:34.871Z,17.80
2022-12-01T04:22:01.211Z,25.37
2022-12-01T04:24:27.463Z,18.00
2022-12-01T04:26:53.739Z,19.33
2022-12-01T04:29:20.103Z,17.30
2022-12-01T04:31:46.430Z,20.23
2022-12-01T04:34:12.689Z,17.97
2022-12-01T04:36:39.025Z,15.23
2022-12-01T04:39:05.421Z,16.63
2022-12-01T04:41:31.871Z,23.30
2022-12-01T04:43:58.192Z,14.80
2022-12-01T04:46:24.679Z,12.93
2022-12-01T04:48:51.273Z,20.10
2022-12-01T04:51:17.646Z,35.37
2022-12-01T04:53:43.929Z,25.03
2022-12-01T04:56:10.307Z,28.13
2022-12-01T04:58:37.711Z,17.50
2022-12-01T05:01:05.314Z,19.70
2022-12-01T05:03:31.790Z,21.50
2022-12-01T05:06:02.475Z,20.83
2022-12-01T05:08:28.898Z,21.43
2022-12-01T05:10:56.489Z,18.87
2022-12-01T05:13:23.145Z,22.80
2022-12-01T05:15:49.651Z,17.47
2022-12-01T05:18:16.016Z,24.23
2022-12-01T05:20:57.385Z,26.47
2022-12-01T05:23:33.510Z,20.40
2022-12-01T05:26:00.058Z,19.80
2022-12-01T05:28:26.828Z,23.73
2022-12-01T05:30:54.167Z,19.10
2022-12-01T05:33:24.492Z,21.23
2022-12-01T05:35:51.216Z,25.50
2022-12-01T05:38:18.324Z,20.53
2022-12-01T05:40:49.753Z,22.13
2022-12-01T05:43:16.035Z,28.20
2022-12-01T05:45:42.348Z,25.67
2022-12-01T05:48:08.738Z,24.67
2022-12-01T05:50:38.464Z,25.83
2022-12-01T05:53:05.070Z,25.60
2022-12-01T05:55:32.848Z,22.07
2022-12-01T05:57:59.121Z,28.97
2022-12-01T06:00:25.460Z,24.90
2022-12-01T06:02:51.789Z,24.97
2022-12-01T06:05:18.070Z,25.87
2022-12-01T06:07:44.370Z,28.00
2022-12-01T06:10:11.080Z,15.70
2022-12-01T06:12:37.583Z,22.50
2022-12-01T06:15:04.829Z,21.53
2022-12-01T06:17:34.580Z,23.33
2022-12-01T06:20:03.535Z,20.57
2022-12-01T06:22:29.872Z,29.10
2022-12-01T06:24:56.218Z,24.70
2022-12-01T06:27:22.522Z,17.73
2022-12-01T06:29:49.722Z,23.37
2022-12-01T06:32:16.526Z,24.73
2022-12-01T06:34:43.685Z,18.57
2022-12-01T06:37:10.530Z,49.70
2022-12-01T06:39:36.845Z,45.23
2022-12-01T06:42:03.226Z,39.67
2022-12-01T06:44:29.898Z,49.63
2022-12-01T06:46:56.816Z,37.97
2022-12-01T06:49:23.075Z,49.80
2022-12-01T06:51:49.461Z,41.33
2022-12-01T06:54:17.723Z,46.83
2022-12-01T06:56:44.427Z,38.17
2022-12-01T06:59:10.933Z,10.90
2022-12-01T07:01:37.623Z,23.27
2022-12-01T07:04:04.001Z,20.10
2022-12-01T07:06:30.941Z,15.47
2022-12-01T07:08:57.200Z,20.80
2022-12-01T07:11:23.506Z,20.67
2022-12-01T07:13:54.129Z,13.30
2022-12-01T07:16:20.441Z,28.27
2022-12-01T07:18:46.723Z,19.23
2022-12-01T07:21:13.570Z,16.93
2022-12-01T07:23:40.036Z,19.83
2022-12-01T07:26:09.530Z,19.47
2022-12-01T07:28:35.969Z,22.20
2022-12-01T07:31:28.864Z,24.53
2022-12-01T07:33:55.335Z,26.13
2022-12-01T07:36:21.597Z,28.73
2022-12-01T07:38:47.883Z,17.93
2022-12-01T07:41:15.347Z,20.37
2022-12-01T07:43:42.041Z,28.57
2022-12-01T07:46:08.735Z,18.07
2022-12-01T07:48:35.647Z,21.63
2022-12-01T07:51:02.094Z,14.53
2022-12-01T07:53:28.358Z,20.33
2022-12-01T07:55:54.602Z,19.67
2022-12-01T07:58:20.935Z,19.33
2022-12-01T08:00:47.227Z,19.00
2022-12-01T08:03:14.146Z,17.73
2022-12-01T08:05:40.593Z,23.73
2022-12-01T08:08:06.928Z,19.37
2022-12-01T08:10:33.338Z,23.77
2022-12-01T08:12:59.582Z,16.87
2022-12-01T08:15:26.443Z,22.93
2022-12-01T08:17:52.749Z,24.07
2022-12-01T08:20:23.663Z,20.93
2022-12-01T08:22:50.398Z,24.30
2022-12-01T08:25:16.767Z,19.30
2022-12-01T08:27:43.023Z,18.13
2022-12-01T08:30:09.489Z,20.23
2022-12-01T08:32:35.756Z,16.23
2022-12-01T08:35:02.022Z,21.73
2022-12-01T08:37:28.294Z,19.27
2022-12-01T08:39:54.534Z,16.57
2022-12-01T08:42:21.615Z,15.13
2022-12-01T08:44:48.001Z,16.33
2022-12-01T08:47:18.507Z,24.20
2022-12-01T08:49:45.086Z,18.60
2022-12-01T08:52:11.338Z,12.83
2022-12-01T08:54:37.675Z,20.97
2022-12-01T08:57:03.971Z,18.27
2022-12-01T08:59:30.418Z,14.67
2022-12-01T09:01:57.375Z,19.60
2022-12-01T09:04:24.723Z,17.20
2022-12-01T09:06:51.968Z,19.10
2022-12-01T09:09:19.424Z,19.53
2022-12-01T09:11:46.871Z,22.77
2022-12-01T09:14:13.644Z,22.27
2022-12-01T09:16:40.636Z,17.60
2022-12-01T09:19:07.045Z,16.50
2022-12-01T09:21:34.238Z,20.37
2022-12-01T09:24:01.479Z,17.33
2022-12-01T09:26:28.150Z,12.30
2022-12-01T09:28:57.349Z,18.23
2022-12-01T09:31:24.060Z,20.60
2022-12-01T09:33:57.664Z,17.47
2022-12-01T09:36:24.370Z,17.77
2022-12-01T09:38:50.875Z,18.47
2022-12-01T09:41:20.095Z,20.20
2022-12-01T09:44:13.934Z,29.80
2022-12-01T09:46:43.187Z,21.57
2022-12-01T09:49:15.508Z,12.97
2022-12-01T09:51:41.801Z,26.37
2022-12-01T09:54:10.817Z,25.63
2022-12-01T09:56:42.362Z,28.93
2022-12-01T09:59:14.958Z,19.63
2022-12-01T10:01:43.071Z,22.50
2022-12-01T10:04:19.435Z,19.23
2022-12-01T10:06:54.214Z,23.17
2022-12-01T10:09:20.515Z,26.08
2022-12-01T10:11:47.620Z,24.47
2022-12-01T10:14:20.410Z,23.87
2022-12-01T10:17:05.970Z,22.57
2022-12-01T10:19:53.346Z,23.38
2022-12-01T10:22:27.367Z,19.63
2022-12-01T10:25:13.888Z,32.20
2022-12-01T10:27:40.173Z,22.87
2022-12-01T10:30:15.519Z,18.30
2022-12-01T10:32:55.103Z,20.50
2022-12-01T10:35:22.632Z,13.97
2022-12-01T10:37:51.716Z,26.70
2022-12-01T10:40:18.161Z,23.90
2022-12-01T10:42:45.741Z,21.97
2022-12-01T10:45:16.614Z,17.33
2022-12-01T10:48:09.240Z,17.60
2022-12-01T10:50:36.019Z,25.47
2022-12-01T10:53:02.964Z,24.20
2022-12-01T10:55:31.866Z,26.07
2022-12-01T10:58:03.432Z,36.90
2022-12-01T11:00:58.475Z,33.45
2022-12-01T11:03:23.155Z,31.83
2022-12-01T11:05:54.519Z,25.40
2022-12-01T11:08:23.069Z,22.80
2022-12-01T11:10:49.833Z,24.40
2022-12-01T11:13:42.167Z,25.10
2022-12-01T11:16:28.435Z,38.37
2022-12-01T11:19:06.714Z,24.57
2022-12-01T11:21:33.057Z,30.67
2022-12-01T11:23:59.372Z,32.37
2022-12-01T11:26:30.409Z,25.43
2022-12-01T11:29:05.819Z,24.00
2022-12-01T11:31:46.306Z,24.93
2022-12-01T11:34:20.157Z,18.77
2022-12-01T11:36:48.640Z,36.50
2022-12-01T11:39:33.839Z,34.00
2022-12-01T11:42:02.412Z,24.02
2022-12-01T11:44:50.424Z,32.90
2022-12-01T11:47:24.993Z,28.07
2022-12-01T11:49:58.909Z,22.07
2022-12-01T11:52:28.264Z,27.23
2022-12-01T11:54:55.575Z,29.17
2022-12-01T11:57:36.898Z,24.47
2022-12-01T12:00:13.165Z,23.50
2022-12-01T12:02:49.480Z,27.13
2022-12-01T12:05:33.266Z,18.27
2022-12-01T12:08:05.702Z,28.53
2022-12-01T12:10:32.082Z,28.80
2022-12-01T12:13:01.444Z,29.47
2022-12-01T12:15:27.752Z,27.17
2022-12-01T12:17:54.063Z,24.57
2022-12-01T12:20:20.546Z,26.17
2022-12-01T12:23:05.898Z,21.73
2022-12-01T12:25:55.367Z,24.92
2022-12-01T12:28:30.926Z,17.60
2022-12-01T12:31:16.173Z,30.03
2022-12-01T12:34:01.063Z,23.95
2022-12-01T12:36:45.964Z,16.02
2022-12-01T12:39:24.406Z,20.23
2022-12-01T12:41:53.229Z,23.67
2022-12-01T12:44:58.015Z,19.80
2022-12-01T12:47:42.953Z,16.23
2022-12-01T12:50:17.250Z,24.67
2022-12-01T12:52:46.205Z,21.27
2022-12-01T12:55:15.576Z,17.93
2022-12-01T12:57:46.582Z,15.23
2022-12-01T13:00:17.755Z,21.03
2022-12-01T13:02:58.166Z,20.00
2022-12-01T13:05:38.286Z,28.33
2022-12-01T13:08:09.094Z,22.60
2022-12-01T13:10:48.395Z,22.73
2022-12-01T13:13:24.588Z,26.53
2022-12-01T13:15:52.561Z,22.00
2022-12-01T13:18:25.221Z,21.17
2022-12-01T13:20:52.263Z,23.73
2022-12-01T13:23:21.076Z,24.63
2022-12-01T13:25:51.347Z,27.73
2022-12-01T13:28:22.724Z,23.80
2022-12-01T13:31:06.164Z,22.97
2022-12-01T13:33:33.134Z,22.03
2022-12-01T13:36:29.891Z,22.13
2022-12-01T13:38:56.907Z,18.97
2022-12-01T13:41:33.861Z,23.37
2022-12-01T13:44:20.408Z,19.47
2022-12-01T13:46:46.782Z,23.37
2022-12-01T13:49:33.527Z,13.80
2022-12-01T13:52:26.604Z,17.10
2022-12-01T13:55:00.533Z,16.97
2022-12-01T13:57:28.231Z,14.30
2022-12-01T14:00:00.406Z,19.23
2022-12-01T14:02:27.962Z,16.30
2022-12-01T14:04:54.387Z,13.93
2022-12-01T14:07:40.923Z,23.53
2022-12-01T14:10:16.088Z,16.80
2022-12-01T14:15:30.567Z,16.93
2022-12-01T14:18:01.348Z,17.47
2022-12-01T14:20:28.312Z,20.73
2022-12-01T14:23:15.975Z,22.97
2022-12-01T14:25:42.720Z,21.40
2022-12-01T14:28:13.957Z,19.87
2022-12-01T14:30:45.457Z,19.03
2022-12-01T14:33:30.577Z,21.13
2022-12-01T14:35:58.779Z,27.73
2022-12-01T14:38:25.907Z,22.93
2022-12-01T14:40:52.472Z,22.67
2022-12-01T14:43:38.847Z,16.30
2022-12-01T14:46:07.721Z,23.60
2022-12-01T14:48:44.639Z,18.87
2022-12-01T14:51:13.499Z,23.50
2022-12-01T14:53:40.967Z,21.50
2022-12-01T14:56:18.637Z,19.77
2022-12-01T14:58:52.388Z,20.67
2022-12-01T15:01:19.092Z,22.63
2022-12-01T15:03:48.190Z,26.43
2022-12-01T15:06:21.825Z,19.43
2022-12-01T15:09:32.317Z,19.63
2022-12-01T15:11:53.661Z,21.57
2022-12-01T15:14:21.771Z,16.57
2022-12-01T15:16:48.158Z,15.53
2022-12-01T15:19:29.481Z,18.07
2022-12-01T15:21:55.837Z,18.50
2022-12-01T15:24:23.422Z,22.77
2022-12-01T15:26:50.984Z,21.63
2022-12-01T15:29:30.539Z,17.73
2022-12-01T15:32:07.808Z,20.00
2022-12-01T15:34:39.759Z,16.23
2022-12-01T15:37:09.618Z,16.43
2022-12-01T15:39:37.054Z,16.53
2022-12-01T15:42:03.605Z,22.53
2022-12-01T15:44:34.501Z,30.77
2022-12-01T15:47:20.720Z,21.67
2022-12-01T15:49:50.196Z,16.00
2022-12-01T15:52:16.496Z,19.40
2022-12-01T15:54:46.884Z,27.20
2022-12-01T15:57:17.314Z,18.30
2022-12-01T15:59:45.486Z,19.20
2022-12-01T16:02:20.847Z,30.23
2022-12-01T16:04:48.680Z,33.50
2022-12-01T16:07:15.402Z,25.73
2022-12-01T16:09:43.062Z,35.03
2022-12-01T16:12:09.319Z,32.10
2022-12-01T16:14:36.339Z,23.27
2022-12-01T16:17:04.122Z,29.03
2022-12-01T16:19:31.353Z,28.77
2022-12-01T16:22:00.484Z,30.00
2022-12-01T16:24:32.222Z,26.60
2022-12-01T16:27:05.645Z,28.70
2022-12-01T16:29:35.218Z,28.67
2022-12-01T16:32:21.959Z,24.57
2022-12-01T16:34:49.968Z,30.13
2022-12-01T16:37:16.671Z,31.63
2022-12-01T16:39:42.956Z,36.83
2022-12-01T16:42:13.848Z,31.63
2022-12-01T16:44:40.604Z,25.10
2022-12-01T16:47:15.952Z,32.57
2022-12-01T16:49:42.326Z,30.90
2022-12-01T16:52:36.527Z,26.70
2022-12-01T16:54:55.003Z,26.20
2022-12-01T16:57:21.269Z,30.33
2022-12-01T16:59:47.554Z,30.13
2022-12-01T17:02:13.891Z,36.37
2022-12-01T17:04:40.325Z,34.10
2022-12-01T17:07:06.751Z,32.13
2022-12-01T17:09:33.036Z,31.53
2022-12-01T17:11:59.309Z,25.33
2022-12-01T17:14:25.751Z,34.60
2022-12-01T17:16:52.050Z,36.80
2022-12-01T17:19:19.189Z,30.80
2022-12-01T17:21:45.511Z,28.07
2022-12-01T17:24:16.140Z,30.00
2022-12-01T17:26:45.103Z,30.80
2022-12-01T17:29:11.355Z,27.40
2022-12-01T17:31:37.651Z,41.13
2022-12-01T17:34:04.133Z,29.30
2022-12-01T17:36:30.474Z,27.20
2022-12-01T17:38:58.524Z,27.43
2022-12-01T17:41:26.810Z,31.57
2022-12-01T17:43:53.110Z,30.60
2022-12-01T17:46:19.489Z,28.43
2022-12-01T17:48:46.400Z,28.73
2022-12-01T17:51:13.549Z,32.17
2022-12-01T17:53:40.258Z,30.77
2022-12-01T17:56:10.749Z,34.70
2022-12-01T17:58:37.392Z,29.60
2022-12-01T18:01:04.607Z,32.67
2022-12-01T18:03:31.076Z,30.77
2022-12-01T18:05:58.160Z,31.23
2022-12-01T18:08:25.518Z,28.30
2022-12-01T18:10:52.110Z,34.93
2022-12-01T18:13:20.325Z,34.70
2022-12-01T18:15:47.745Z,30.27
2022-12-01T18:18:14.168Z,31.50
2022-12-01T18:20:41.686Z,36.57
2022-12-01T18:23:08.166Z,26.13
2022-12-01T18:25:35.477Z,29.67
2022-12-01T18:28:02.881Z,29.80
2022-12-01T18:30:29.793Z,33.77
2022-12-01T18:32:58.106Z,25.13
2022-12-01T18:35:27.470Z,34.43
2022-12-01T18:37:57.811Z,26.73
2022-12-01T18:40:24.293Z,34.50
2022-12-01T18:42:50.742Z,41.20
2022-12-01T18:45:21.316Z,31.40
2022-12-01T18:47:47.966Z,35.70
2022-12-01T18:50:14.476Z,39.47
2022-12-01T18:52:40.786Z,35.73
2022-12-01T18:55:07.416Z,29.90
2022-12-01T18:57:33.839Z,32.20
2022-12-01T19:00:00.165Z,34.97
2022-12-01T19:02:26.778Z,28.73
2022-12-01T19:04:53.327Z,27.50
2022-12-01T19:07:19.730Z,29.10
2022-12-01T19:09:46.162Z,43.97
2022-12-01T19:12:12.478Z,33.93
2022-12-01T19:14:38.783Z,29.97
2022-12-01T19:17:05.177Z,35.23
2022-12-01T19:19:37.131Z,33.93
2022-12-01T19:22:04.281Z,29.90
2022-12-01T19:24:30.545Z,30.87
2022-12-01T19:26:56.958Z,28.90
2022-12-01T19:29:23.221Z,43.10
2022-12-01T19:31:49.564Z,37.47
2022-12-01T19:34:15.962Z,36.20
2022-12-01T19:36:42.298Z,33.83
2022-12-01T19:39:08.617Z,34.80
2022-12-01T19:41:34.923Z,34.27
2022-12-01T19:44:01.262Z,31.60
2022-12-01T19:46:28.776Z,34.60
2022-12-01T19:48:56.405Z,38.37
2022-12-01T19:51:24.452Z,28.37
2022-12-01T19:53:51.205Z,35.67
2022-12-01T19:56:17.710Z,38.60
2022-12-01T19:58:44.058Z,36.20
2022-12-01T20:01:11.761Z,35.17
2022-12-01T20:03:39.064Z,36.63
2022-12-01T20:06:06.558Z,34.40
2022-12-01T20:08:35.901Z,31.73
2022-12-01T20:11:04.170Z,31.67
2022-12-01T20:13:31.077Z,38.03
2022-12-01T20:16:01.491Z,34.13
2022-12-01T20:18:27.845Z,35.27
2022-12-01T20:21:07.423Z,46.73
2022-12-01T20:23:34.610Z,33.97
2022-12-01T20:26:05.858Z,40.10
2022-12-01T20:28:32.977Z,32.50
2022-12-01T20:30:59.560Z,37.30
2022-12-01T20:33:26.103Z,48.13
2022-12-01T20:35:52.507Z,38.63
2022-12-01T20:38:22.900Z,37.67
2022-12-01T20:40:52.735Z,30.27
2022-12-01T20:43:19.438Z,41.73
2022-12-01T20:45:45.933Z,38.27
2022-12-01T20:48:12.435Z,33.40
2022-12-01T20:50:38.916Z,30.43
2022-12-01T20:53:05.318Z,34.50
2022-12-01T20:55:31.640Z,31.20
2022-12-01T20:57:57.935Z,43.47
2022-12-01T21:00:24.275Z,40.93
2022-12-01T21:02:50.743Z,36.63
2022-12-01T21:05:17.203Z,31.53
2022-12-01T21:07:43.591Z,32.33
2022-12-01T21:10:10.116Z,28.07
2022-12-01T21:12:56.891Z,32.53
2022-12-01T21:15:27.835Z,43.43
2022-12-01T21:17:59.048Z,35.40
2022-12-01T21:20:40.524Z,33.63
2022-12-01T21:23:10.868Z,34.43
2022-12-01T21:25:37.807Z,35.90
2022-12-01T21:28:12.341Z,32.03
2022-12-01T21:30:40.209Z,39.00
2022-12-01T21:33:25.101Z,39.50
2022-12-01T21:35:52.286Z,42.78
2022-12-01T21:38:21.962Z,29.03
2022-12-01T21:40:48.729Z,32.30
2022-12-01T21:43:22.805Z,33.30
2022-12-01T21:46:11.871Z,33.97
2022-12-01T21:48:38.198Z,38.40
2022-12-01T21:51:20.803Z,42.90
2022-12-01T21:53:47.987Z,33.43
2022-12-01T21:56:21.054Z,32.67
2022-12-01T21:58:47.600Z,29.60
2022-12-01T22:01:20.815Z,30.77
2022-12-01T22:03:47.370Z,39.23
2022-12-01T22:06:29.281Z,39.30
2022-12-01T22:08:58.246Z,34.67
2022-12-01T22:11:25.439Z,36.70
2022-12-01T22:13:54.619Z,36.70
2022-12-01T22:16:31.621Z,35.90
2022-12-01T22:19:02.376Z,43.83
2022-12-01T22:21:33.023Z,49.17
2022-12-01T22:24:02.111Z,46.40
2022-12-01T22:26:28.395Z,37.93
2022-12-01T22:28:56.361Z,44.80
2022-12-01T22:31:22.896Z,43.37
2022-12-01T22:33:53.541Z,40.77
2022-12-01T22:36:24.340Z,45.70
2022-12-01T22:38:50.729Z,43.90
2022-12-01T22:41:19.099Z,42.20
2022-12-01T22:43:54.811Z,46.37
2022-12-01T22:46:25.193Z,42.27
2022-12-01T22:48:57.320Z,41.80
2022-12-01T22:51:25.069Z,54.03
2022-12-01T22:53:53.489Z,41.23
2022-12-01T22:56:31.848Z,49.30
2022-12-01T22:58:58.216Z,52.37
2022-12-01T23:01:26.281Z,62.50
2022-12-01T23:04:04.585Z,53.87
2022-12-01T23:06:44.354Z,56.27
2022-12-01T23:09:14.151Z,62.17
2022-12-01T23:11:44.129Z,66.40
2022-12-01T23:14:18.724Z,54.23
2022-12-01T23:16:45.026Z,52.15
2022-12-01T23:19:11.341Z,54.07
2022-12-01T23:21:38.032Z,50.50
2022-12-01T23:24:04.952Z,62.97
2022-12-01T23:26:31.641Z,57.27
2022-12-01T23:28:58.550Z,52.23
2022-12-01T23:31:25.652Z,60.10
2022-12-01T23:33:52.007Z,61.03
2022-12-01T23:36:28.710Z,65.57
2022-12-01T23:38:57.493Z,57.40
2022-12-01T23:41:26.875Z,52.90
2022-12-01T23:43:53.751Z,61.53
2022-12-01T23:46:21.486Z,60.37
2022-12-01T23:48:52.256Z,42.07
2022-12-01T23:51:19.696Z,51.00
2022-12-01T23:53:46.283Z,67.30
2022-12-01T23:56:15.838Z,53.13
2022-12-01T23:58:43.378Z,60.93
